Time;durP1;ratioP1;P1;durP2;ratioP2;P2;SDS_P1;SDS_P2;PMS_P1;PMS_P2;Temp;Humidity;BMP_temperature;BMP_pressure;BME280_temperature;BME280_humidity;BME280_pressure;Samples;Min_cycle;Max_cycle;Signal;HPM_P1;HPM_P2
2021/03/03 00:00:41;;;;;;;;;;;;;;;18.06;69.22;102407.91;5071057;28;1275;-71
2021/03/03 00:03:08;;;;;;;;;;;;;;;18.05;69.01;102414.13;5089948;28;1184;-70
2021/03/03 00:05:36;;;;;;;;;;;;;;;18.05;69.29;102414.13;5089165;28;1340;-72
2021/03/03 00:08:03;;;;;;;;;;;;;;;18.03;69.62;102412.38;5090034;28;1277;-72
2021/03/03 00:10:29;;;;;;;;;;;;;;;18.03;69.13;102411.50;5087525;28;1617;-71
2021/03/03 00:12:55;;;;;;;;;;;;;;;18.02;69.22;102409.81;5071141;28;1914;-72
2021/03/03 00:15:21;;;;;;;;;;;;;;;18.02;69.13;102415.09;5070739;28;1339;-71
2021/03/03 00:17:48;;;;;;;;;;;;;;;18.02;69.23;102415.91;5070897;28;1180;-70
2021/03/03 00:20:14;;;;;;;;;;;;;;;18.00;68.86;102408.97;5071176;28;1640;-71
2021/03/03 00:22:40;;;;;;;;;;;;;;;18.01;68.89;102411.56;5070860;28;985;-71
2021/03/03 00:25:07;;;;;;;;;;;;;;;18.00;69.09;102419.50;5089153;28;1254;-70
2021/03/03 00:27:33;;;;;;;;;;;;;;;17.98;68.99;102419.56;5070460;28;1170;-71
2021/03/03 00:30:12;;;;;;;;;;;;;;;17.99;69.25;102416.00;5070320;28;1352;-71
2021/03/03 00:32:38;;;;;;;;;;;;;;;17.98;68.81;102424.84;5089149;28;1937;-71
2021/03/03 00:35:05;;;;;;;;;;;;;;;17.97;68.83;102417.81;5070569;28;1204;-71
2021/03/03 00:37:31;;;;;;;;;;;;;;;17.98;68.91;102418.69;5089348;28;1038;-71
2021/03/03 00:39:58;;;;;;;;;;;;;;;17.96;68.97;102410.81;5089065;28;1228;-71
2021/03/03 00:42:24;;;;;;;;;;;;;;;17.95;68.87;102414.38;5070528;28;1255;-71
2021/03/03 00:44:50;;;;;;;;;;;;;;;17.95;68.85;102417.00;5070459;28;1208;-69
2021/03/03 00:47:16;;;;;;;;;;;;;;;17.95;68.82;102413.50;5053849;28;1220;-71
2021/03/03 00:49:42;;;;;;;;;;;;;;;17.94;69.05;102412.63;5087344;28;1256;-72
2021/03/03 00:52:08;;;;;;;;;;;;;;;17.94;69.06;102417.91;5070355;28;1906;-72
2021/03/03 00:54:35;;;;;;;;;;;;;;;17.93;68.91;102416.16;5088758;28;804;-71
2021/03/03 00:57:01;;;;;;;;;;;;;;;17.93;68.99;102416.16;5070973;28;1224;-71
2021/03/03 00:59:27;;;;;;;;;;;;;;;17.92;69.11;102413.59;5092824;28;766;-71
2021/03/03 01:01:53;;;;;;;;;;;;;;;17.92;69.01;102409.19;5092900;28;1320;-71
2021/03/03 01:04:20;;;;;;;;;;;;;;;17.93;69.01;102413.53;5074518;28;1015;-71
2021/03/03 01:06:46;;;;;;;;;;;;;;;17.93;69.02;102412.69;5092532;28;1233;-71
2021/03/03 01:09:12;;;;;;;;;;;;;;;17.92;69.23;102410.97;5092882;28;916;-71
2021/03/03 01:11:38;;;;;;;;;;;;;;;17.92;69.09;102408.31;5092666;28;1408;-71
2021/03/03 01:14:05;;;;;;;;;;;;;;;17.91;69.20;102409.22;5074278;28;1918;-71
2021/03/03 01:16:31;;;;;;;;;;;;;;;17.91;69.31;102410.09;5092757;28;1209;-71
2021/03/03 01:18:57;;;;;;;;;;;;;;;17.90;69.32;102405.72;5074076;28;856;-71
2021/03/03 01:21:23;;;;;;;;;;;;;;;17.89;69.36;102405.78;5092417;28;1324;-72
2021/03/03 01:23:49;;;;;;;;;;;;;;;17.89;69.55;102411.03;5092509;28;1051;-71
2021/03/03 01:26:16;;;;;;;;;;;;;;;17.89;69.36;102405.78;5074010;28;1387;-71
2021/03/03 01:28:42;;;;;;;;;;;;;;;17.89;69.37;102404.00;5092098;28;793;-71
2021/03/03 01:31:08;;;;;;;;;;;;;;;17.89;69.16;102403.13;5091682;28;1319;-71
2021/03/03 01:33:35;;;;;;;;;;;;;;;17.87;69.31;102400.53;5091767;28;1901;-70
2021/03/03 01:36:03;;;;;;;;;;;;;;;17.86;69.43;102398.81;5091918;28;1598;-71
2021/03/03 01:38:29;;;;;;;;;;;;;;;17.87;69.25;102403.16;5092281;28;920;-71
2021/03/03 01:40:55;;;;;;;;;;;;;;;17.86;69.25;102404.09;5091831;28;1319;-70
2021/03/03 01:43:22;;;;;;;;;;;;;;;17.85;69.30;102396.19;5092061;28;788;-70
2021/03/03 01:45:49;;;;;;;;;;;;;;;17.87;69.56;102404.97;5091789;28;1310;-70
2021/03/03 01:48:16;;;;;;;;;;;;;;;17.85;69.38;102402.34;5073346;28;1243;-70
2021/03/03 01:50:43;;;;;;;;;;;;;;;17.87;69.41;102402.31;5091752;28;1212;-70
2021/03/03 01:53:10;;;;;;;;;;;;;;;17.85;69.39;102391.81;5073495;28;1910;-70
2021/03/03 01:55:36;;;;;;;;;;;;;;;17.85;69.68;102394.44;5073384;28;1254;-70
2021/03/03 01:58:03;;;;;;;;;;;;;;;17.85;69.65;102388.28;5073626;28;1295;-70
2021/03/03 02:00:30;;;;;;;;;;;;;;;17.84;69.77;102383.94;5091970;28;1328;-70
2021/03/03 02:02:56;;;;;;;;;;;;;;;17.83;69.98;102383.09;5092148;28;1085;-70
2021/03/03 02:05:23;;;;;;;;;;;;;;;17.83;69.58;102380.44;5091732;28;1321;-70
2021/03/03 02:07:54;;;;;;;;;;;;;;;17.83;69.52;102372.53;5091353;28;1039;-71
2021/03/03 02:10:26;;;;;;;;;;;;;;;17.83;69.67;102374.31;5091612;28;1692;-70
2021/03/03 02:13:04;;;;;;;;;;;;;;;17.83;69.94;102366.41;5091775;28;1984;-72
2021/03/03 02:15:32;;;;;;;;;;;;;;;17.83;70.02;102369.03;5091618;28;1251;-70
2021/03/03 02:18:01;;;;;;;;;;;;;;;17.83;69.75;102364.63;5091729;28;1272;-70
2021/03/03 02:20:31;;;;;;;;;;;;;;;17.81;70.01;102363.78;5091707;28;1310;-71
2021/03/03 02:23:13;;;;;;;;;;;;;;;17.82;69.61;102365.53;5073014;28;1335;-71
2021/03/03 02:25:44;;;;;;;;;;;;;;;17.82;69.79;102365.53;5091485;28;1315;-70
2021/03/03 02:28:11;;;;;;;;;;;;;;;17.82;69.74;102362.88;5091635;28;1169;-71
2021/03/03 02:30:44;;;;;;;;;;;;;;;17.82;69.89;102359.38;5073019;28;1347;-71
2021/03/03 02:33:13;;;;;;;;;;;;;;;17.82;69.70;102349.72;5089220;28;1901;-70
2021/03/03 02:35:40;;;;;;;;;;;;;;;17.81;69.66;102349.78;5072935;28;1232;-71
2021/03/03 02:38:07;;;;;;;;;;;;;;;17.81;69.69;102347.97;5091531;28;1277;-70
2021/03/03 02:40:34;;;;;;;;;;;;;;;17.79;69.83;102347.16;5091518;28;1213;-70
2021/03/03 02:43:01;;;;;;;;;;;;;;;17.78;69.98;102342.78;5091317;28;1235;-70
2021/03/03 02:45:27;;;;;;;;;;;;;;;17.80;70.08;102350.66;5091271;28;1276;-71
2021/03/03 02:47:55;;;;;;;;;;;;;;;17.79;70.06;102341.88;5090740;28;1202;-71
2021/03/03 02:50:21;;;;;;;;;;;;;;;17.79;70.10;102349.78;5090630;28;1287;-70
2021/03/03 02:52:52;;;;;;;;;;;;;;;17.80;70.00;102346.25;5072914;28;1976;-71
2021/03/03 02:55:18;;;;;;;;;;;;;;;17.80;70.00;102342.75;5090864;28;1208;-71
2021/03/03 02:57:45;;;;;;;;;;;;;;;17.79;69.83;102339.25;5091060;28;1083;-71
2021/03/03 03:00:21;;;;;;;;;;;;;;;17.78;69.95;102337.50;5072241;28;1169;-71
2021/03/03 03:02:48;;;;;;;;;;;;;;;17.78;69.99;102340.16;5091231;28;1105;-71
2021/03/03 03:05:16;;;;;;;;;;;;;;;17.76;69.96;102328.78;5090320;28;1334;-71
2021/03/03 03:07:46;;;;;;;;;;;;;;;17.77;70.00;102334.94;5090292;28;1060;-71
2021/03/03 03:10:13;;;;;;;;;;;;;;;17.76;69.90;102331.44;5090151;28;1365;-71
2021/03/03 03:12:41;;;;;;;;;;;;;;;17.76;70.05;102334.06;5072307;28;1987;-71
2021/03/03 03:15:08;;;;;;;;;;;;;;;17.77;69.83;102334.94;5100773;28;1236;-70
2021/03/03 03:17:35;;;;;;;;;;;;;;;17.75;69.93;102327.06;5110967;28;1122;-69
2021/03/03 03:20:03;;;;;;;;;;;;;;;17.75;69.85;102327.06;5109649;28;1277;-69
2021/03/03 03:22:29;;;;;;;;;;;;;;;17.76;69.88;102333.19;5110669;28;1046;-69
2021/03/03 03:24:57;;;;;;;;;;;;;;;17.76;69.88;102334.06;5110306;28;1301;-69
2021/03/03 03:27:24;;;;;;;;;;;;;;;17.74;69.97;102330.63;5110698;28;1013;-69
2021/03/03 03:29:52;;;;;;;;;;;;;;;17.74;70.03;102330.63;5110149;28;1208;-69
2021/03/03 03:32:23;;;;;;;;;;;;;;;17.76;70.02;102335.84;5109999;28;1910;-68
2021/03/03 03:34:50;;;;;;;;;;;;;;;17.73;70.04;102328.88;5109979;28;1299;-69
2021/03/03 03:37:18;;;;;;;;;;;;;;;17.74;69.72;102329.75;5110143;28;1054;-69
2021/03/03 03:39:44;;;;;;;;;;;;;;;17.74;69.86;102329.75;5109362;28;719;-69
2021/03/03 03:42:13;;;;;;;;;;;;;;;17.74;69.73;102330.63;5110255;28;1284;-69
2021/03/03 03:44:40;;;;;;;;;;;;;;;17.75;69.95;102336.75;5108744;28;1178;-70
2021/03/03 03:47:06;;;;;;;;;;;;;;;17.72;69.98;102335.03;5108537;28;1465;-70
2021/03/03 03:49:33;;;;;;;;;;;;;;;17.73;69.98;102330.66;5109925;28;1103;-69
2021/03/03 03:51:59;;;;;;;;;;;;;;;17.71;70.00;102330.69;5110104;28;1240;-69
2021/03/03 03:54:25;;;;;;;;;;;;;;;17.71;70.01;102333.34;5110383;28;1036;-69
2021/03/03 03:56:51;;;;;;;;;;;;;;;17.74;69.94;102340.28;5110113;28;1239;-69
2021/03/03 03:59:17;;;;;;;;;;;;;;;17.72;69.76;102332.41;5109887;28;983;-69
2021/03/03 04:01:44;;;;;;;;;;;;;;;17.71;69.93;102335.09;5091663;28;1516;-72
2021/03/03 04:04:10;;;;;;;;;;;;;;;17.71;70.07;102330.69;5091419;28;1327;-70
2021/03/03 04:06:36;;;;;;;;;;;;;;;17.72;69.69;102332.41;5110109;28;1230;-69
2021/03/03 04:09:02;;;;;;;;;;;;;;;17.72;69.81;102329.78;5091635;28;809;-69
2021/03/03 04:11:29;;;;;;;;;;;;;;;17.71;69.56;102338.63;5091635;28;1700;-69
2021/03/03 04:13:55;;;;;;;;;;;;;;;17.69;69.75;102335.13;5110055;28;1988;-70
2021/03/03 04:16:21;;;;;;;;;;;;;;;17.70;69.76;102339.50;5109663;28;1239;-70
2021/03/03 04:18:47;;;;;;;;;;;;;;;17.71;69.74;102335.97;5109669;28;801;-70
2021/03/03 04:21:14;;;;;;;;;;;;;;;17.70;69.90;102339.50;5109770;28;1263;-70
2021/03/03 04:23:40;;;;;;;;;;;;;;;17.71;69.75;102333.34;5110021;28;1013;-70
2021/03/03 04:26:06;;;;;;;;;;;;;;;17.70;69.69;102344.78;5110014;28;1318;-72
2021/03/03 04:28:33;;;;;;;;;;;;;;;17.71;69.73;102341.25;5074289;28;1157;-72
2021/03/03 04:30:59;;;;;;;;;;;;;;;17.70;69.74;102343.91;5090522;28;1319;-71
2021/03/03 04:33:26;;;;;;;;;;;;;;;17.70;69.91;102338.63;5109248;28;1993;-71
2021/03/03 04:35:52;;;;;;;;;;;;;;;17.69;69.84;102340.41;5074139;28;1335;-71
2021/03/03 04:38:18;;;;;;;;;;;;;;;17.67;69.72;102339.59;5109178;28;993;-70
2021/03/03 04:40:45;;;;;;;;;;;;;;;17.69;69.85;102336.94;5109745;28;1244;-71
2021/03/03 04:43:12;;;;;;;;;;;;;;;17.68;69.82;102336.06;5109650;28;1206;-71
2021/03/03 04:45:38;;;;;;;;;;;;;;;17.68;69.82;102341.34;5109557;28;1241;-71
2021/03/03 04:48:04;;;;;;;;;;;;;;;17.67;69.89;102342.22;5109049;28;1308;-71
2021/03/03 04:50:31;;;;;;;;;;;;;;;17.68;69.70;102346.59;5108974;28;1320;-70
2021/03/03 04:52:57;;;;;;;;;;;;;;;17.68;69.69;102340.47;5109358;28;1989;-71
2021/03/03 04:55:26;;;;;;;;;;;;;;;17.69;69.76;102337.75;5108714;28;1220;-69
2021/03/03 04:57:52;;;;;;;;;;;;;;;17.67;69.72;102334.31;5108862;28;1030;-70
2021/03/03 05:00:19;;;;;;;;;;;;;;;17.67;69.69;102336.09;5108852;28;1314;-70
2021/03/03 05:02:45;;;;;;;;;;;;;;;17.66;69.58;102337.00;5108899;28;1587;-71
2021/03/03 05:05:12;;;;;;;;;;;;;;;17.67;69.78;102338.72;5108834;28;1330;-71
2021/03/03 05:07:38;;;;;;;;;;;;;;;17.66;69.79;102335.22;5109356;28;1134;-70
2021/03/03 05:10:05;;;;;;;;;;;;;;;17.64;69.79;102344.94;5073937;28;1440;-71
2021/03/03 05:12:32;;;;;;;;;;;;;;;17.65;69.81;102336.16;5072461;28;1899;-71
2021/03/03 05:14:58;;;;;;;;;;;;;;;17.65;69.64;102341.41;5088565;28;1248;-71
2021/03/03 05:17:24;;;;;;;;;;;;;;;17.65;69.71;102337.91;5088902;28;1076;-70
2021/03/03 05:19:50;;;;;;;;;;;;;;;17.65;69.47;102336.16;5070411;28;1217;-70
2021/03/03 05:22:17;;;;;;;;;;;;;;;17.65;69.53;102343.19;5070824;28;1127;-70
2021/03/03 05:24:43;;;;;;;;;;;;;;;17.65;69.38;102340.53;5088578;28;810;-70
2021/03/03 05:27:09;;;;;;;;;;;;;;;17.65;69.52;102341.41;5088808;28;1366;-70
2021/03/03 05:29:35;;;;;;;;;;;;;;;17.65;69.71;102333.50;5088180;28;1088;-70
2021/03/03 05:32:01;;;;;;;;;;;;;;;17.64;69.70;102344.94;5089096;28;1169;-70
2021/03/03 05:34:28;;;;;;;;;;;;;;;17.65;69.62;102336.16;5089165;28;1910;-70
2021/03/03 05:36:58;;;;;;;;;;;;;;;17.64;69.44;102344.06;5088874;28;1330;-69
2021/03/03 05:39:24;;;;;;;;;;;;;;;17.64;69.46;102341.44;5087217;28;1131;-69
2021/03/03 05:41:50;;;;;;;;;;;;;;;17.62;69.48;102338.88;5088413;28;1308;-70
2021/03/03 05:44:18;;;;;;;;;;;;;;;17.62;69.51;102338.00;5072379;28;1403;-69
2021/03/03 05:46:45;;;;;;;;;;;;;;;17.63;69.55;102342.38;5092377;28;1223;-69
2021/03/03 05:49:17;;;;;;;;;;;;;;;17.64;69.50;102338.81;5090726;28;1626;-69
2021/03/03 05:51:45;;;;;;;;;;;;;;;17.62;69.49;102341.50;5074089;28;1339;-71
2021/03/03 05:54:11;;;;;;;;;;;;;;;17.61;69.35;102334.50;5092162;28;1980;-71
2021/03/03 05:56:38;;;;;;;;;;;;;;;17.62;69.24;102340.63;5074030;28;1243;-71
2021/03/03 05:59:09;;;;;;;;;;;;;;;17.61;69.25;102346.78;5073606;28;1012;-72
2021/03/03 06:01:36;;;;;;;;;;;;;;;17.61;69.23;102345.03;5092170;28;1351;-69
2021/03/03 06:04:18;;;;;;;;;;;;;;;17.59;69.40;102345.97;5076235;28;833;-70
2021/03/03 06:06:44;;;;;;;;;;;;;;;17.60;69.43;102345.94;5073698;28;1323;-71
2021/03/03 06:09:11;;;;;;;;;;;;;;;17.59;69.14;102346.84;5091954;28;927;-70
2021/03/03 06:11:37;;;;;;;;;;;;;;;17.60;69.49;102348.56;5091827;28;1455;-69
2021/03/03 06:14:04;;;;;;;;;;;;;;;17.60;69.08;102353.84;5073366;28;1990;-70
2021/03/03 06:16:30;;;;;;;;;;;;;;;17.59;68.88;102352.13;5091450;28;1331;-70
2021/03/03 06:18:57;;;;;;;;;;;;;;;17.58;69.20;102357.41;5091748;28;852;-70
2021/03/03 06:21:24;;;;;;;;;;;;;;;17.59;69.26;102352.13;5091292;28;1201;-70
2021/03/03 06:24:07;;;;;;;;;;;;;;;17.64;69.62;102362.53;5082270;28;1538;-68
2021/03/03 06:26:35;;;;;;;;;;;;;;;17.61;69.25;102363.47;5027639;28;1268;-68
2021/03/03 06:29:11;;;;;;;;;;;;;;;17.58;69.27;102358.28;5050080;28;866;-66
2021/03/03 06:31:37;;;;;;;;;;;;;;;17.57;69.37;102364.44;5050927;28;1256;-67
2021/03/03 06:34:13;;;;;;;;;;;;;;;17.59;69.36;102362.66;5052453;28;1986;-68
2021/03/03 06:36:44;;;;;;;;;;;;;;;17.59;69.54;102362.66;5079196;28;1280;-69
2021/03/03 06:39:14;;;;;;;;;;;;;;;17.59;69.46;102367.94;5090638;28;1250;-67
2021/03/03 06:41:40;;;;;;;;;;;;;;;17.58;69.98;102366.19;5084457;28;1569;-69
2021/03/03 06:44:06;;;;;;;;;;;;;;;17.67;69.90;102365.94;5073249;28;1075;-72
2021/03/03 06:46:32;;;;;;;;;;;;;;;17.85;69.80;102370.72;5070669;28;1250;-71
2021/03/03 06:49:00;;;;;;;;;;;;;;;17.72;69.33;102369.31;5052824;28;1173;-69
2021/03/03 06:51:34;;;;;;;;;;;;;;;17.74;69.88;102374.56;5070128;28;1307;-70
2021/03/03 06:54:04;;;;;;;;;;;;;;;17.63;69.71;102359.03;5070274;28;2112;-71
2021/03/03 06:56:31;;;;;;;;;;;;;;;17.61;69.83;102371.38;5051246;28;1261;-71
2021/03/03 06:59:19;;;;;;;;;;;;;;;17.64;69.80;102371.31;5036074;28;1279;-69
2021/03/03 07:01:52;;;;;;;;;;;;;;;17.76;69.60;102372.72;5051939;28;1245;-69
2021/03/03 07:04:20;;;;;;;;;;;;;;;17.70;69.55;102376.41;5052499;28;1467;-69
2021/03/03 07:06:47;;;;;;;;;;;;;;;17.65;69.71;102375.69;5069864;28;1153;-70
2021/03/03 07:09:13;;;;;;;;;;;;;;;17.63;69.55;102379.25;5069978;28;1072;-70
2021/03/03 07:11:40;;;;;;;;;;;;;;;17.63;69.19;102380.09;5062763;28;1651;-71
2021/03/03 07:14:12;;;;;;;;;;;;;;;17.63;69.73;102385.38;5090425;28;1909;-70
2021/03/03 07:16:57;;;;;;;;;;;;;;;17.64;69.16;102381.84;5090139;28;1382;-69
2021/03/03 07:19:24;;;;;;;;;;;;;;;17.64;69.44;102381.84;5090291;28;1152;-70
2021/03/03 07:21:50;;;;;;;;;;;;;;;17.63;69.12;102390.63;5089823;28;1216;-70
2021/03/03 07:24:16;;;;;;;;;;;;;;;17.83;69.47;102392.75;5097080;28;1534;-68
2021/03/03 07:27:00;;;;;;;;;;;;;;;17.74;69.33;102396.50;5073351;28;1406;-68
2021/03/03 07:29:35;;;;;;;;;;;;;;;17.70;69.30;102391.34;5070983;28;1317;-67
2021/03/03 07:32:02;;;;;;;;;;;;;;;17.65;68.99;102391.50;5087481;28;1321;-67
2021/03/03 07:34:29;;;;;;;;;;;;;;;17.71;69.45;102393.97;5070664;28;1909;-69
2021/03/03 07:36:57;;;;;;;;;;;;;;;17.69;69.14;102390.47;5088705;28;1206;-70
2021/03/03 07:39:24;;;;;;;;;;;;;;;17.66;69.69;102393.19;5089238;28;1055;-70
2021/03/03 07:41:50;;;;;;;;;;;;;;;17.66;69.85;102393.19;5068770;28;1282;-67
2021/03/03 07:44:18;;;;;;;;;;;;;;;17.68;70.05;102393.16;5068335;28;1237;-69
2021/03/03 07:46:47;;;;;;;;;;;;;;;17.67;69.75;102396.69;5083603;28;1367;-69
2021/03/03 07:49:24;;;;;;;;;;;;;;;17.73;69.63;102396.53;5070914;28;1161;-67
2021/03/03 07:51:50;;;;;;;;;;;;;;;17.75;69.43;102403.50;5053255;28;1224;-67
2021/03/03 07:54:17;;;;;;;;;;;;;;;17.79;69.17;102399.00;5053701;28;2005;-67
2021/03/03 07:56:44;;;;;;;;;;;;;;;17.81;69.14;102400.69;5087807;28;1299;-68
2021/03/03 07:59:10;;;;;;;;;;;;;;;17.94;69.52;102409.13;5090325;28;1393;-70
2021/03/03 08:01:37;;;;;;;;;;;;;;;17.95;68.50;102408.25;5108608;28;1220;-69
2021/03/03 08:04:04;;;;;;;;;;;;;;;17.88;68.68;102414.56;5108906;28;1036;-69
2021/03/03 08:06:37;;;;;;;;;;;;;;;17.87;68.64;102416.34;5061679;28;1635;-69
2021/03/03 08:09:06;;;;;;;;;;;;;;;17.87;68.18;102421.63;5087603;28;1127;-69
2021/03/03 08:11:33;;;;;;;;;;;;;;;17.88;68.24;102431.25;5088898;28;1586;-69
2021/03/03 08:14:00;;;;;;;;;;;;;;;17.88;68.35;102428.63;5070188;28;1926;-68
2021/03/03 08:16:27;;;;;;;;;;;;;;;17.87;68.36;102424.25;5053527;28;1237;-68
2021/03/03 08:18:57;;;;;;;;;;;;;;;17.90;68.12;102433.88;5106865;28;1111;-70
2021/03/03 08:21:24;;;;;;;;;;;;;;;17.90;68.12;102433.88;5108885;28;1382;-70
2021/03/03 08:23:57;;;;;;;;;;;;;;;17.90;68.25;102434.72;5109015;28;1348;-69
2021/03/03 08:26:23;;;;;;;;;;;;;;;17.90;68.03;102432.06;5108874;28;1240;-70
2021/03/03 08:28:53;;;;;;;;;;;;;;;17.91;68.03;102438.22;5108781;28;1071;-70
2021/03/03 08:31:26;;;;;;;;;;;;;;;17.92;67.90;102439.97;5109113;28;1308;-70
2021/03/03 08:33:53;;;;;;;;;;;;;;;17.91;67.85;102433.81;5090272;28;1977;-70
2021/03/03 08:36:25;;;;;;;;;;;;;;;17.91;67.90;102439.09;5082595;28;1318;-70
2021/03/03 08:38:54;;;;;;;;;;;;;;;17.93;67.69;102442.53;5066753;28;1049;-69
2021/03/03 08:41:21;;;;;;;;;;;;;;;17.93;67.64;102439.91;5067397;28;1410;-68
2021/03/03 08:43:48;;;;;;;;;;;;;;;17.93;67.56;102442.53;5088102;28;1111;-69
2021/03/03 08:46:21;;;;;;;;;;;;;;;17.94;67.65;102441.63;5088725;28;1224;-69
2021/03/03 08:48:52;;;;;;;;;;;;;;;17.94;67.55;102435.50;5066485;28;1408;-70
2021/03/03 08:51:23;;;;;;;;;;;;;;;17.94;67.49;102439.00;5066543;28;1624;-70
2021/03/03 08:53:50;;;;;;;;;;;;;;;17.96;67.74;102438.97;5066277;28;1984;-68
2021/03/03 08:56:32;;;;;;;;;;;;;;;17.95;67.70;102443.38;5088102;28;1260;-67
2021/03/03 08:58:59;;;;;;;;;;;;;;;17.97;67.46;102445.97;5088448;28;1056;-68
2021/03/03 09:01:52;;;;;;;;;;;;;;;18.00;68.70;102443.25;5087799;28;1319;-69
2021/03/03 09:04:29;;;;;;;;;;;;;;;18.06;67.93;102445.72;5079500;28;1700;-69
2021/03/03 09:06:57;;;;;;;;;;;;;;;18.02;67.82;102439.66;5070552;28;1394;-68
2021/03/03 09:09:24;;;;;;;;;;;;;;;18.02;68.51;102442.28;5107642;28;1025;-70
2021/03/03 09:11:58;;;;;;;;;;;;;;;18.07;67.83;102443.94;5090397;28;1672;-69
2021/03/03 09:14:24;;;;;;;;;;;;;;;18.11;68.31;102448.25;5108834;28;1974;-70
2021/03/03 09:16:51;;;;;;;;;;;;;;;18.12;67.88;102449.97;5108394;28;1311;-68
2021/03/03 09:19:18;;;;;;;;;;;;;;;18.07;66.99;102447.44;5110985;28;1118;-68
2021/03/03 09:21:44;;;;;;;;;;;;;;;18.07;67.18;102449.22;5112406;28;1270;-68
2021/03/03 09:24:13;;;;;;;;;;;;;;;18.05;67.15;102449.28;5093893;28;1343;-67
2021/03/03 09:26:40;;;;;;;;;;;;;;;18.05;67.17;102451.03;5094157;28;1243;-69
2021/03/03 09:29:06;;;;;;;;;;;;;;;18.07;66.90;102449.22;5076918;28;1324;-70
2021/03/03 09:31:36;;;;;;;;;;;;;;;18.07;67.08;102447.44;5071488;28;1232;-67
2021/03/03 09:34:04;;;;;;;;;;;;;;;18.09;67.06;102452.69;5071621;28;1914;-69
2021/03/03 09:36:30;;;;;;;;;;;;;;;18.08;67.03;102445.69;5073457;28;1289;-68
2021/03/03 09:38:57;;;;;;;;;;;;;;;18.08;66.94;102445.69;5109473;28;1118;-69
2021/03/03 09:41:24;;;;;;;;;;;;;;;18.09;66.81;102450.06;5112207;28;1314;-68
2021/03/03 09:44:04;;;;;;;;;;;;;;;18.08;66.93;102446.56;5111528;28;1127;-68
2021/03/03 09:46:50;;;;;;;;;;;;;;;18.14;67.48;102445.50;5093500;28;1244;-69
2021/03/03 09:49:21;;;;;;;;;;;;;;;18.16;68.65;102434.00;5097866;28;1454;-67
2021/03/03 09:51:47;;;;;;;;;;;;;;;18.13;66.24;102438.50;5111529;28;1223;-64
2021/03/03 09:54:32;;;;;;;;;;;;;;;18.17;65.31;102440.16;5093467;28;1930;-67
2021/03/03 09:57:04;;;;;;;;;;;;;;;18.14;66.15;102440.25;5111618;28;1319;-67
2021/03/03 09:59:31;;;;;;;;;;;;;;;18.12;66.37;102439.44;5112186;28;899;-66
2021/03/03 10:01:58;;;;;;;;;;;;;;;18.09;66.66;102435.06;5109742;28;1320;-68
2021/03/03 10:04:25;;;;;;;;;;;;;;;18.11;66.49;102435.06;5073637;28;1115;-64
2021/03/03 10:06:52;;;;;;;;;;;;;;;18.09;66.48;102434.25;5072343;28;1212;-65
2021/03/03 10:09:18;;;;;;;;;;;;;;;18.08;66.62;102432.50;5082917;28;1056;-66
2021/03/03 10:11:45;;;;;;;;;;;;;;;18.08;66.55;102430.72;5090629;28;1629;-67
2021/03/03 10:14:11;;;;;;;;;;;;;;;18.08;66.88;102430.72;5110504;28;1995;-65
2021/03/03 10:16:38;;;;;;;;;;;;;;;18.09;66.90;102427.16;5111418;28;1219;-66
2021/03/03 10:19:08;;;;;;;;;;;;;;;18.10;67.11;102421.00;5093056;28;1315;-67
2021/03/03 10:21:43;;;;;;;;;;;;;;;18.11;67.17;102419.22;5111257;28;1203;-66
2021/03/03 10:24:27;;;;;;;;;;;;;;;18.10;67.20;102423.63;5111434;28;1130;-66
2021/03/03 10:26:53;;;;;;;;;;;;;;;18.10;67.23;102422.75;5092530;28;1734;-66
2021/03/03 10:29:36;;;;;;;;;;;;;;;18.10;67.17;102423.63;5092484;28;1073;-67
2021/03/03 10:32:10;;;;;;;;;;;;;;;18.11;67.14;102416.59;5092539;28;1492;-67
2021/03/03 10:34:37;;;;;;;;;;;;;;;18.10;67.21;102413.09;5111231;28;1909;-67
2021/03/03 10:37:03;;;;;;;;;;;;;;;18.11;67.22;102417.47;5110629;28;1334;-67
2021/03/03 10:39:30;;;;;;;;;;;;;;;18.14;68.85;102414.72;5111496;28;1003;-67
2021/03/03 10:42:03;;;;;;;;;;;;;;;18.14;68.06;102409.47;5092065;28;1530;-67
2021/03/03 10:44:40;;;;;;;;;;;;;;;18.13;67.48;102409.50;5111305;28;1152;-67
2021/03/03 10:47:06;;;;;;;;;;;;;;;18.12;67.48;102410.41;5110578;28;1166;-67
2021/03/03 10:49:38;;;;;;;;;;;;;;;18.12;67.39;102408.63;5111144;28;917;-68
2021/03/03 10:52:18;;;;;;;;;;;;;;;18.13;67.59;102407.72;5110593;28;1362;-69
2021/03/03 10:54:44;;;;;;;;;;;;;;;18.14;67.40;102408.59;5110548;28;1913;-66
2021/03/03 10:57:11;;;;;;;;;;;;;;;18.17;68.92;102408.50;5092079;28;1382;-66
2021/03/03 10:59:38;;;;;;;;;;;;;;;18.16;68.83;102406.75;5110740;28;1171;-66
2021/03/03 11:02:08;;;;;;;;;;;;;;;18.15;69.20;102402.41;5091478;28;1341;-65
2021/03/03 11:04:41;;;;;;;;;;;;;;;18.17;69.27;102403.22;5092574;28;1179;-65
2021/03/03 11:07:08;;;;;;;;;;;;;;;18.17;68.45;102397.94;5110029;28;1240;-64
2021/03/03 11:09:53;;;;;;;;;;;;;;;18.18;68.83;102389.16;5093701;28;1008;-66
2021/03/03 11:12:23;;;;;;;;;;;;;;;18.19;69.41;102396.13;5109687;28;1178;-65
2021/03/03 11:14:49;;;;;;;;;;;;;;;18.19;68.48;102391.72;5110097;28;1914;-67
2021/03/03 11:17:16;;;;;;;;;;;;;;;18.26;67.43;102390.66;5096266;28;1090;-67
2021/03/03 11:19:42;;;;;;;;;;;;;;;18.29;67.52;102381.78;5089127;28;1168;-67
2021/03/03 11:22:09;;;;;;;;;;;;;;;18.03;61.26;102380.75;5078346;28;1390;-64
2021/03/03 11:24:35;;;;;;;;;;;;;;;17.76;59.57;102378.88;5069682;28;841;-67
2021/03/03 11:27:02;;;;;;;;;;;;;;;17.77;58.86;102383.25;5071458;28;1262;-65
2021/03/03 11:29:28;;;;;;;;;;;;;;;17.83;60.14;102374.31;5092176;28;995;-67
2021/03/03 11:32:11;;;;;;;;;;;;;;;17.70;58.10;102372.91;5077949;28;1279;-67
2021/03/03 11:34:38;;;;;;;;;;;;;;;17.43;58.21;102366.56;5088601;28;1913;-68
2021/03/03 11:37:04;;;;;;;;;;;;;;;17.56;58.32;102370.66;5089144;28;1260;-70
2021/03/03 11:39:30;;;;;;;;;;;;;;;17.57;58.14;102364.44;5089282;28;790;-68
2021/03/03 11:41:56;;;;;;;;;;;;;;;17.53;58.07;102367.19;5088014;28;1216;-68
2021/03/03 11:44:22;;;;;;;;;;;;;;;17.71;58.78;102359.69;5089128;28;1261;-70
2021/03/03 11:46:48;;;;;;;;;;;;;;;17.82;59.16;102354.97;5071073;28;1286;-68
2021/03/03 11:49:15;;;;;;;;;;;;;;;17.99;59.52;102355.34;5071095;28;932;-69
2021/03/03 11:51:41;;;;;;;;;;;;;;;18.01;60.30;102345.66;5070500;28;1274;-69
2021/03/03 11:54:11;;;;;;;;;;;;;;;18.00;61.41;102345.69;5070979;28;1906;-68
2021/03/03 11:56:37;;;;;;;;;;;;;;;17.99;61.95;102342.16;5071033;28;1224;-68
2021/03/03 11:59:03;;;;;;;;;;;;;;;18.00;62.31;102328.09;5070469;28;1312;-67
2021/03/03 12:01:30;;;;;;;;;;;;;;;18.00;62.75;102321.94;5089116;28;1160;-68
2021/03/03 12:03:56;;;;;;;;;;;;;;;18.00;63.05;102322.81;5088973;28;833;-67
2021/03/03 12:06:23;;;;;;;;;;;;;;;18.02;63.19;102315.72;5093233;28;1271;-68
2021/03/03 12:08:51;;;;;;;;;;;;;;;18.03;63.50;102314.81;5091025;28;1171;-69
2021/03/03 12:11:17;;;;;;;;;;;;;;;18.05;63.61;102311.28;5108846;28;1347;-69
2021/03/03 12:14:03;;;;;;;;;;;;;;;18.06;63.80;102310.34;5108863;28;1897;-68
2021/03/03 12:16:29;;;;;;;;;;;;;;;18.06;63.91;102303.31;5068213;28;1208;-68
2021/03/03 12:18:56;;;;;;;;;;;;;;;18.08;64.00;102305.91;5088697;28;1007;-69
2021/03/03 12:21:22;;;;;;;;;;;;;;;18.09;63.95;102300.59;5069839;28;1391;-68
2021/03/03 12:23:48;;;;;;;;;;;;;;;18.16;63.58;102298.63;5088773;28;845;-68
2021/03/03 12:26:15;;;;;;;;;;;;;;;18.17;63.66;102298.59;5069929;28;1240;-68
2021/03/03 12:28:41;;;;;;;;;;;;;;;18.19;63.71;102298.53;5088283;28;1213;-67
2021/03/03 12:31:09;;;;;;;;;;;;;;;18.16;64.18;102286.31;5070953;28;1326;-67
2021/03/03 12:33:36;;;;;;;;;;;;;;;18.17;64.32;102287.19;5070534;28;1966;-67
2021/03/03 12:36:03;;;;;;;;;;;;;;;18.19;64.26;102294.13;5086457;28;1289;-68
2021/03/03 12:38:31;;;;;;;;;;;;;;;18.24;64.19;102270.25;5067959;28;1107;-69
2021/03/03 12:41:14;;;;;;;;;;;;;;;18.30;63.93;102280.63;5050208;28;1331;-69
2021/03/03 12:43:44;;;;;;;;;;;;;;;18.32;63.82;102274.38;5033732;28;1571;-65
2021/03/03 12:46:10;;;;;;;;;;;;;;;18.35;64.01;102276.06;5068116;28;1224;-65
2021/03/03 12:48:36;;;;;;;;;;;;;;;18.30;64.45;102268.28;5068681;28;1216;-66
2021/03/03 12:51:03;;;;;;;;;;;;;;;18.29;64.52;102269.22;5067940;28;1228;-65
2021/03/03 12:53:29;;;;;;;;;;;;;;;18.29;64.33;102266.56;5070670;28;1975;-64